Time;durP1;ratioP1;P1;durP2;ratioP2;P2;SDS_P1;SDS_P2;PMS_P1;PMS_P2;Temp;Humidity;BMP_temperature;BMP_pressure;BME280_temperature;BME280_humidity;BME280_pressure;Samples;Min_cycle;Max_cycle;Signal;HPM_P1;HPM_P2
2022/02/05 00:02:10;;;;;;;0.70;0.70;;;3.80;1.00;;;;;;5041453;28;20215;-76
2022/02/05 00:04:39;;;;;;;4.80;1.00;;;3.80;1.00;;;;;;5054129;28;20570;-75
2022/02/05 00:07:07;;;;;;;1.13;0.80;;;3.70;1.00;;;;;;5038129;28;20906;-75
2022/02/05 00:09:52;;;;;;;6.05;1.13;;;3.80;1.00;;;;;;5052763;28;20196;-75
2022/02/05 00:15:19;;;;;;;0.57;0.57;;;3.50;1.00;;;;;;5051159;28;20179;-75
2022/02/05 00:42:27;;;;;;;2.78;0.80;;;2.90;1.00;;;;;;5043680;28;20164;-76
2022/02/05 00:44:51;;;;;;;4.38;0.70;;;2.80;1.00;;;;;;5056320;28;20184;-75
2022/02/05 00:47:34;;;;;;;1.10;0.93;;;2.80;1.00;;;;;;5044149;28;20189;-75
2022/02/05 00:50:15;;;;;;;0.93;0.90;;;2.70;1.00;;;;;;5046700;28;20615;-75
2022/02/05 00:52:45;;;;;;;1.75;0.95;;;2.70;1.00;;;;;;5043695;28;20202;-75
2022/02/05 00:55:21;;;;;;;3.13;1.25;;;2.60;1.00;;;;;;5048809;28;20160;-75
2022/02/05 00:57:51;;;;;;;5.20;1.10;;;2.60;1.00;;;;;;5043604;28;20191;-75
2022/02/05 01:00:19;;;;;;;6.82;0.80;;;2.60;1.00;;;;;;5043517;28;20172;-75
2022/02/05 01:02:45;;;;;;;1.50;0.88;;;2.50;1.00;;;;;;5055865;28;20203;-75
2022/02/05 01:05:11;;;;;;;5.28;0.60;;;2.50;1.00;;;;;;5057263;28;20167;-74
2022/02/05 01:07:38;;;;;;;1.50;1.08;;;2.50;1.00;;;;;;5046121;28;20192;-74
2022/02/05 01:10:04;;;;;;;0.82;0.82;;;2.50;1.00;;;;;;5050269;28;20562;-74
2022/02/05 01:12:32;;;;;;;3.95;1.05;;;2.40;1.00;;;;;;5054006;28;20190;-75
2022/02/05 01:15:01;;;;;;;0.95;0.95;;;2.40;1.00;;;;;;5054533;28;20631;-75
2022/02/05 01:17:34;;;;;;;1.65;1.00;;;;;;;;;;5045315;28;20176;-74
2022/02/05 01:22:41;;;;;;;0.70;0.70;;;2.60;1.00;;;;;;5048295;28;20274;-74
2022/02/05 01:25:07;;;;;;;1.20;0.80;;;2.60;1.00;;;;;;5052269;28;20176;-74
2022/02/05 01:30:23;;;;;;;3.90;1.23;;;2.70;1.00;;;;;;5055153;28;20204;-75
2022/02/05 01:33:00;;;;;;;1.20;0.65;;;2.70;1.00;;;;;;5055456;28;20156;-75
2022/02/05 01:52:33;;;;;;;1.30;0.98;;;3.40;1.00;;;;;;5029022;28;20279;-74
2022/02/05 02:20:01;;;;;;;5.30;1.52;;;3.70;1.00;;;;;;4985447;28;20564;-75
2022/02/05 02:22:58;;;;;;;2.08;1.10;;;3.60;1.00;;;;;;4981974;28;20174;-75
2022/02/05 02:28:13;;;;;;;2.90;1.00;;;3.50;1.00;;;;;;4981564;28;20544;-75
2022/02/05 02:30:51;;;;;;;0.90;0.90;;;3.40;1.00;;;;;;4982784;28;20536;-75
2022/02/05 02:33:34;;;;;;;4.85;1.10;;;3.30;1.00;;;;;;4990485;28;20193;-75
2022/02/05 02:39:19;;;;;;;2.67;1.10;;;3.20;1.00;;;;;;4909815;29;20192;-75
2022/02/05 02:41:57;;;;;;;1.13;0.90;;;3.20;1.00;;;;;;4916890;29;20193;-75
2022/02/05 02:44:27;;;;;;;2.25;1.00;;;3.00;1.00;;;;;;4916957;29;20203;-75
2022/02/05 02:47:15;;;;;;;1.25;1.00;;;3.00;1.00;;;;;;4946547;29;20638;-75
2022/02/05 02:49:56;;;;;;;1.15;0.95;;;2.90;1.00;;;;;;4955142;29;20211;-75
2022/02/05 02:58:04;;;;;;;1.45;1.35;;;2.90;1.00;;;;;;4943351;29;20226;-75
2022/02/05 03:02:57;;;;;;;3.60;1.47;;;2.90;1.00;;;;;;4954135;29;20265;-75
2022/02/05 03:05:23;;;;;;;3.75;1.30;;;2.80;1.00;;;;;;4954652;29;20191;-74
2022/02/05 03:07:49;;;;;;;2.10;1.10;;;2.80;1.00;;;;;;4948969;28;20675;-74
2022/02/05 03:10:21;;;;;;;1.45;1.17;;;2.80;1.00;;;;;;4954390;29;20210;-74
2022/02/05 03:12:51;;;;;;;6.20;1.50;;;2.70;1.00;;;;;;4982379;28;20632;-74
2022/02/05 03:15:20;;;;;;;1.40;1.30;;;2.70;1.00;;;;;;5050712;28;20246;-74
2022/02/05 03:18:02;;;;;;;1.02;0.90;;;2.70;1.00;;;;;;5044834;28;20258;-75
2022/02/05 03:20:28;;;;;;;0.90;0.90;;;2.70;1.00;;;;;;5053437;28;20305;-74
2022/02/05 03:22:54;;;;;;;2.00;1.33;;;2.60;1.00;;;;;;5049208;28;20250;-74
2022/02/05 03:25:19;;;;;;;3.27;1.27;;;2.60;1.00;;;;;;5040770;28;20187;-74
2022/02/05 03:27:51;;;;;;;6.70;1.30;;;2.60;1.00;;;;;;5053757;28;20183;-74
2022/02/05 03:30:17;;;;;;;1.75;1.35;;;2.50;1.00;;;;;;5047344;28;20208;-74
2022/02/05 03:32:59;;;;;;;9.93;1.30;;;2.50;1.00;;;;;;5045115;28;20643;-74
2022/02/05 03:35:25;;;;;;;4.50;1.77;;;2.40;1.00;;;;;;5040726;28;20270;-74
2022/02/05 03:37:57;;;;;;;2.60;1.23;;;2.40;1.00;;;;;;5051885;28;20730;-74
2022/02/05 03:40:27;;;;;;;3.33;1.30;;;2.40;1.00;;;;;;5047304;28;20627;-74
2022/02/05 03:42:57;;;;;;;2.13;1.08;;;2.40;1.00;;;;;;5038660;28;20220;-74
2022/02/05 03:45:27;;;;;;;1.42;1.08;;;2.40;1.00;;;;;;5034005;28;20262;-74
2022/02/05 03:47:53;;;;;;;3.47;1.08;;;2.30;1.00;;;;;;5036820;28;20175;-74
2022/02/05 03:50:21;;;;;;;1.50;1.00;;;2.40;1.00;;;;;;5044548;28;20544;-74
2022/02/05 03:52:47;;;;;;;3.30;1.23;;;2.40;1.00;;;;;;5050513;28;20554;-74
2022/02/05 03:55:13;;;;;;;0.97;0.97;;;;;;;;;;5043810;28;20180;-74
2022/02/05 03:57:39;;;;;;;6.20;1.65;;;;;;;;;;5043218;28;20218;-75
2022/02/05 04:00:07;;;;;;;2.85;1.40;;;2.50;1.00;;;;;;5042684;28;20168;-74
2022/02/05 04:02:37;;;;;;;1.00;0.93;;;2.50;1.00;;;;;;5050976;28;20187;-75
2022/02/05 04:05:04;;;;;;;1.30;1.20;;;2.50;1.00;;;;;;5046055;28;20176;-74
2022/02/05 04:07:37;;;;;;;2.97;1.27;;;2.50;1.00;;;;;;5040090;28;20179;-75
2022/02/05 04:10:15;;;;;;;3.05;1.13;;;2.60;1.00;;;;;;5046105;28;20200;-75
2022/02/05 04:18:09;;;;;;;1.35;1.23;;;2.50;1.00;;;;;;5035924;28;20171;-74
2022/02/05 04:20:40;;;;;;;1.17;1.03;;;2.50;1.00;;;;;;5055209;28;20179;-74
2022/02/05 04:23:06;;;;;;;5.28;1.75;;;2.50;1.00;;;;;;5057610;28;20305;-75
2022/02/05 04:25:40;;;;;;;1.80;1.70;;;2.60;1.00;;;;;;5044895;28;20654;-74
2022/02/05 04:28:06;;;;;;;1.70;1.60;;;2.60;1.00;;;;;;5056218;28;20182;-74
2022/02/05 04:30:32;;;;;;;1.70;1.33;;;2.60;1.00;;;;;;5047657;28;20264;-75
2022/02/05 04:33:03;;;;;;;4.00;1.40;;;2.50;1.00;;;;;;5056592;28;20156;-75
2022/02/05 04:35:43;;;;;;;5.28;1.40;;;2.60;1.00;;;;;;5049372;28;20673;-75
2022/02/05 04:38:09;;;;;;;2.75;1.58;;;2.60;1.00;;;;;;5053611;28;20205;-75
2022/02/05 04:40:42;;;;;;;4.47;1.70;;;2.60;1.00;;;;;;5056829;28;20258;-75
2022/02/05 04:43:37;;;;;;;3.33;1.45;;;2.60;1.00;;;;;;5043799;28;20180;-75
2022/02/05 04:59:20;;;;;;;1.63;1.53;;;2.50;1.00;;;;;;5042936;28;20188;-75
2022/02/05 05:04:32;;;;;;;1.50;1.02;;;2.50;1.00;;;;;;5037479;28;20169;-75
2022/02/05 05:10:04;;;;;;;2.50;1.50;;;2.50;1.00;;;;;;5038362;28;20290;-75
2022/02/05 05:12:37;;;;;;;1.77;1.60;;;2.50;1.00;;;;;;5055372;28;20566;-75
2022/02/05 05:20:22;;;;;;;3.45;1.58;;;2.50;1.00;;;;;;5044589;28;20233;-74
2022/02/05 05:22:48;;;;;;;4.60;1.43;;;2.60;1.00;;;;;;5045764;28;20177;-75
2022/02/05 05:25:14;;;;;;;1.30;1.20;;;2.60;1.00;;;;;;5049669;28;20454;-75
2022/02/05 05:27:40;;;;;;;1.55;1.30;;;2.60;1.00;;;;;;5047962;28;20251;-75
2022/02/05 05:30:06;;;;;;;2.33;1.60;;;2.60;1.00;;;;;;5049818;28;20641;-75
2022/02/05 05:32:39;;;;;;;3.33;1.70;;;2.60;1.00;;;;;;5045308;28;20188;-74
2022/02/05 05:35:06;;;;;;;3.10;2.13;;;2.70;1.00;;;;;;5040836;28;20234;-74
2022/02/05 05:37:32;;;;;;;5.72;1.85;;;2.70;1.00;;;;;;5044274;28;20204;-74
2022/02/05 05:40:04;;;;;;;13.07;1.87;;;2.70;1.00;;;;;;5049537;28;20251;-74
2022/02/05 05:42:36;;;;;;;2.83;1.70;;;2.60;1.00;;;;;;5036334;28;20167;-75
2022/02/05 05:45:28;;;;;;;2.35;1.33;;;2.60;1.00;;;;;;5046043;28;20230;-74
2022/02/05 05:48:05;;;;;;;3.67;2.25;;;2.70;1.00;;;;;;5051233;28;20174;-74
2022/02/05 05:53:08;;;;;;;2.35;1.60;;;2.70;1.00;;;;;;5042647;28;20171;-74
2022/02/05 05:55:35;;;;;;;2.25;1.50;;;2.70;1.00;;;;;;5045968;28;20160;-74
2022/02/05 05:58:01;;;;;;;2.20;1.60;;;2.70;1.00;;;;;;5041743;28;20238;-74
2022/02/05 06:00:33;;;;;;;1.27;1.17;;;2.70;1.00;;;;;;5037320;28;20524;-75
2022/02/05 06:02:59;;;;;;;3.55;2.05;;;2.60;1.00;;;;;;5053520;28;20163;-74
2022/02/05 06:05:33;;;;;;;1.30;1.20;;;2.50;1.00;;;;;;5049462;28;20188;-74
2022/02/05 06:07:59;;;;;;;2.53;1.70;;;2.60;1.00;;;;;;5042022;28;20431;-74
2022/02/05 06:10:39;;;;;;;1.57;1.47;;;2.50;1.00;;;;;;5042481;28;20191;-75
2022/02/05 06:13:05;;;;;;;1.90;1.23;;;2.50;1.00;;;;;;5046509;28;20166;-75
2022/02/05 06:15:41;;;;;;;4.23;2.00;;;2.60;1.00;;;;;;5037960;28;20255;-75
2022/02/05 06:18:09;;;;;;;2.65;1.65;;;2.50;1.00;;;;;;5047952;28;20634;-74
2022/02/05 06:20:39;;;;;;;4.93;2.10;;;2.50;1.00;;;;;;5036082;28;20199;-75
2022/02/05 06:23:15;;;;;;;4.00;1.67;;;2.50;1.00;;;;;;5046745;28;20176;-75
2022/02/05 06:25:41;;;;;;;1.90;1.73;;;2.50;1.00;;;;;;5043308;28;20194;-75
2022/02/05 06:28:16;;;;;;;6.95;2.05;;;2.50;1.00;;;;;;5041853;28;20181;-75
2022/02/05 06:30:45;;;;;;;7.95;1.77;;;2.50;1.00;;;;;;5046898;28;20249;-75
2022/02/05 06:33:12;;;;;;;6.13;1.70;;;2.50;1.00;;;;;;5041755;28;20176;-74
2022/02/05 06:35:39;;;;;;;2.08;1.65;;;2.50;1.00;;;;;;5047455;28;20219;-75
2022/02/05 06:38:09;;;;;;;2.53;1.65;;;2.50;1.00;;;;;;5051950;28;20184;-74
2022/02/05 06:40:35;;;;;;;2.05;1.35;;;2.50;1.00;;;;;;5051858;28;20222;-74
2022/02/05 06:43:01;;;;;;;4.60;1.40;;;;;;;;;;5053019;28;20204;-74
2022/02/05 06:45:27;;;;;;;9.18;1.88;;;2.40;1.00;;;;;;5055118;28;20163;-74
2022/02/05 06:47:53;;;;;;;2.70;1.70;;;2.50;1.00;;;;;;5041323;28;20192;-75
2022/02/05 06:50:19;;;;;;;3.00;2.25;;;2.50;1.00;;;;;;5055012;28;20940;-76
2022/02/05 06:52:45;;;;;;;2.80;1.90;;;;;;;;;;5041892;28;20194;-74
2022/02/05 06:55:21;;;;;;;2.72;1.63;;;2.40;1.00;;;;;;5045748;28;20429;-76
2022/02/05 06:58:03;;;;;;;5.90;1.70;;;2.40;1.00;;;;;;5049637;28;20179;-76
2022/02/05 07:00:33;;;;;;;1.88;1.77;;;2.40;1.00;;;;;;5046601;28;20187;-74
2022/02/05 07:03:03;;;;;;;1.77;1.67;;;2.40;1.00;;;;;;5048567;28;20274;-75
2022/02/05 07:05:29;;;;;;;1.83;1.38;;;2.40;1.00;;;;;;5040994;28;20177;-75
2022/02/05 07:07:55;;;;;;;5.10;1.60;;;2.50;1.00;;;;;;5054960;28;20175;-74
2022/02/05 07:10:21;;;;;;;1.97;1.70;;;2.50;1.00;;;;;;5039646;28;20330;-75
2022/02/05 07:15:21;;;;;;;4.18;1.85;;;2.40;1.00;;;;;;5044608;28;20423;-74
2022/02/05 07:21:01;;;;;;;1.85;1.60;;;2.40;1.00;;;;;;5004093;28;20184;-74
2022/02/05 07:31:25;;;;;;;3.17;1.80;;;2.30;1.00;;;;;;5004495;28;20204;-75
2022/02/05 07:33:52;;;;;;;4.55;2.20;;;2.30;1.00;;;;;;4998652;28;20189;-75
2022/02/05 07:36:45;;;;;;;6.65;2.55;;;2.30;1.00;;;;;;5007469;28;20271;-74
2022/02/05 07:39:12;;;;;;;1.90;1.80;;;2.20;1.00;;;;;;4992644;28;20177;-75
2022/02/05 07:41:40;;;;;;;4.75;2.40;;;2.20;1.00;;;;;;5008844;28;20213;-75
2022/02/05 07:44:11;;;;;;;3.70;2.25;;;2.30;1.00;;;;;;4999505;28;20231;-75
2022/02/05 07:46:37;;;;;;;9.07;1.98;;;2.30;1.00;;;;;;5010780;28;20627;-75
2022/02/05 07:49:03;;;;;;;3.70;2.30;;;2.30;1.00;;;;;;5011981;28;20204;-75
2022/02/05 07:51:29;;;;;;;4.47;2.10;;;2.30;1.00;;;;;;5011164;28;20177;-75
2022/02/05 07:53:55;;;;;;;2.47;2.17;;;2.30;1.00;;;;;;5009909;28;20421;-75
2022/02/05 07:56:21;;;;;;;3.47;2.17;;;2.40;1.00;;;;;;5035774;28;20169;-74
2022/02/05 07:58:47;;;;;;;3.50;2.10;;;2.40;1.00;;;;;;5041468;28;20183;-74
2022/02/05 08:01:15;;;;;;;8.97;2.60;;;2.50;1.00;;;;;;5040151;28;20179;-74
2022/02/05 08:03:41;;;;;;;2.10;1.77;;;2.50;1.00;;;;;;5037541;28;20180;-75
2022/02/05 08:06:21;;;;;;;3.97;2.58;;;2.60;1.00;;;;;;5038937;28;20227;-74
2022/02/05 08:08:49;;;;;;;4.93;2.40;;;2.60;1.00;;;;;;5048500;28;20670;-75
2022/02/05 08:11:20;;;;;;;2.28;2.08;;;2.60;1.00;;;;;;5044811;28;20180;-75
2022/02/05 08:13:49;;;;;;;3.17;1.95;;;2.60;1.00;;;;;;5039455;28;20548;-75
2022/02/05 08:16:44;;;;;;;7.35;2.70;;;2.70;1.00;;;;;;5050383;28;20192;-75
2022/02/05 08:19:10;;;;;;;4.00;2.58;;;2.70;1.00;;;;;;5041978;28;20504;-75
2022/02/05 08:21:36;;;;;;;2.00;1.90;;;2.80;1.00;;;;;;5051849;28;20698;-75
2022/02/05 08:24:02;;;;;;;2.43;1.93;;;2.90;1.00;;;;;;5045320;28;20169;-75
2022/02/05 08:26:35;;;;;;;3.37;2.53;;;2.90;1.00;;;;;;5033872;28;20430;-75
2022/02/05 08:29:12;;;;;;;3.63;2.38;;;3.00;1.00;;;;;;5044006;28;20458;-76
2022/02/05 08:31:37;;;;;;;12.57;2.55;;;3.10;1.00;;;;;;5051134;28;20211;-74
2022/02/05 08:34:03;;;;;;;6.70;2.07;;;3.10;1.00;;;;;;5043682;28;20266;-74
2022/02/05 08:36:41;;;;;;;6.00;2.33;;;3.20;1.00;;;;;;5047323;28;20230;-73
2022/02/05 08:39:06;;;;;;;5.47;2.30;;;3.30;1.00;;;;;;5041278;28;20214;-74
2022/02/05 08:41:32;;;;;;;1.67;1.57;;;3.30;1.00;;;;;;5042505;28;20187;-74
2022/02/05 08:44:04;;;;;;;6.83;2.40;;;3.40;1.00;;;;;;5052552;28;20491;-75
2022/02/05 08:46:34;;;;;;;3.37;2.40;;;3.50;1.00;;;;;;5038022;28;20516;-76
2022/02/05 08:49:04;;;;;;;2.88;2.10;;;3.50;1.00;;;;;;5039836;28;21020;-77
2022/02/05 08:51:32;;;;;;;3.00;2.25;;;3.60;1.00;;;;;;5044855;28;20192;-74
2022/02/05 08:54:33;;;;;;;4.13;1.98;;;3.60;1.00;;;;;;5053681;28;20225;-79
2022/02/05 08:56:59;;;;;;;4.07;1.40;;;3.70;1.00;;;;;;5040235;28;20179;-75
2022/02/05 08:59:32;;;;;;;2.77;0.83;;;4.00;1.00;;;;;;5037708;28;20204;-78
2022/02/05 09:02:16;;;;;;;0.80;0.80;;;4.00;1.00;;;;;;5041394;28;20438;-76
2022/02/05 09:04:52;;;;;;;1.80;1.57;;;4.10;1.00;;;;;;5047673;28;20419;-76
2022/02/05 09:07:19;;;;;;;2.13;1.70;;;4.30;1.00;;;;;;5049243;28;20508;-75
2022/02/05 09:10:04;;;;;;;1.27;1.17;;;4.30;1.00;;;;;;5043480;28;20454;-75
2022/02/05 09:14:56;;;;;;;5.30;1.77;;;4.60;1.00;;;;;;5046098;28;20187;-74
2022/02/05 09:17:21;;;;;;;3.57;1.93;;;4.60;1.00;;;;;;5045184;28;20479;-75
2022/02/05 09:19:49;;;;;;;0.73;0.73;;;;;;;;;;5043391;28;20192;-72
2022/02/05 09:22:16;;;;;;;4.33;0.57;;;4.50;1.00;;;;;;5049114;28;20500;-74
2022/02/05 09:24:41;;;;;;;1.60;0.90;;;4.40;1.00;;;;;;5056213;28;20417;-74
2022/02/05 09:27:12;;;;;;;3.27;1.50;;;4.50;1.00;;;;;;5041651;28;20789;-76
2022/02/05 09:30:00;;;;;;;6.00;0.97;;;4.50;1.00;;;;;;5046411;28;20235;-74
2022/02/05 09:32:27;;;;;;;1.20;1.07;;;4.40;1.00;;;;;;5047589;28;20435;-74
2022/02/05 09:34:53;;;;;;;2.13;1.73;;;4.40;1.00;;;;;;5045040;28;20465;-74
2022/02/05 09:37:20;;;;;;;1.70;1.10;;;4.40;1.00;;;;;;5041542;28;20508;-74
2022/02/05 09:39:51;;;;;;;6.53;1.67;;;4.40;1.00;;;;;;5054420;28;20399;-75
2022/02/05 09:42:21;;;;;;;2.60;1.20;;;4.50;1.00;;;;;;5043073;28;20449;-75
2022/02/05 09:44:47;;;;;;;3.10;1.50;;;4.60;1.00;;;;;;5056068;28;20450;-75
2022/02/05 09:47:16;;;;;;;5.30;1.80;;;4.70;1.00;;;;;;5051955;28;20461;-75
2022/02/05 09:49:45;;;;;;;2.00;1.53;;;4.70;1.00;;;;;;5049566;28;20473;-75
2022/02/05 09:52:20;;;;;;;6.33;1.67;;;4.80;1.00;;;;;;5039015;28;21097;-75
2022/02/05 09:54:52;;;;;;;5.30;1.97;;;5.00;1.00;;;;;;5056377;28;20392;-74
2022/02/05 09:57:19;;;;;;;3.93;1.90;;;5.00;1.00;;;;;;5055651;28;20402;-75
2022/02/05 09:59:53;;;;;;;2.90;2.07;;;5.30;1.00;;;;;;5042696;28;20921;-74
2022/02/05 10:02:30;;;;;;;5.07;1.80;;;5.30;1.00;;;;;;5038488;28;20415;-75
2022/02/05 10:05:16;;;;;;;3.43;0.83;;;5.40;1.00;;;;;;5053627;28;20418;-76
2022/02/05 10:08:08;;;;;;;14.90;1.33;;;5.30;1.00;;;;;;5042379;28;20436;-75
2022/02/05 10:10:43;;;;;;;2.50;1.47;;;5.40;1.00;;;;;;5042932;28;20469;-74
2022/02/05 10:13:18;;;;;;;2.10;1.43;;;5.40;1.00;;;;;;5035654;28;20399;-75
2022/02/05 10:15:51;;;;;;;2.47;1.27;;;5.40;1.00;;;;;;5044195;28;20417;-74
2022/02/05 10:18:27;;;;;;;2.80;1.87;;;5.50;1.00;;;;;;5042295;28;20771;-75
2022/02/05 10:20:58;;;;;;;1.40;1.10;;;5.50;1.00;;;;;;5052744;28;20500;-75
2022/02/05 10:23:25;;;;;;;2.93;1.63;;;5.50;1.00;;;;;;5044368;28;20418;-74
2022/02/05 10:25:54;;;;;;;1.43;1.33;;;5.50;1.00;;;;;;5049253;28;20925;-75
2022/02/05 10:28:20;;;;;;;8.33;1.87;;;5.40;1.00;;;;;;5046535;28;20444;-75
2022/02/05 10:30:50;;;;;;;1.60;1.47;;;5.50;1.00;;;;;;5040041;28;20490;-75
2022/02/05 10:33:35;;;;;;;2.73;1.20;;;5.40;1.00;;;;;;5045761;28;20777;-75
2022/02/05 10:39:09;;;;;;;6.83;1.63;;;5.50;1.00;;;;;;5039260;28;20438;-74
2022/02/05 10:44:15;;;;;;;0.87;0.87;;;5.70;1.00;;;;;;5041963;28;20418;-75
2022/02/05 10:46:44;;;;;;;4.73;1.33;;;5.80;1.00;;;;;;5041525;28;20415;-74
2022/02/05 10:49:30;;;;;;;1.80;1.20;;;5.90;1.00;;;;;;5045958;28;20447;-75
2022/02/05 10:51:59;;;;;;;4.50;1.90;;;;;;;;;;5048252;28;20476;-74
2022/02/05 10:54:50;;;;;;;3.70;1.37;;;6.10;1.00;;;;;;5054884;28;20414;-74
2022/02/05 10:57:31;;;;;;;4.93;1.23;;;6.10;1.00;;;;;;5043412;28;21120;-74
2022/02/05 11:05:40;;;;;;;9.33;1.13;;;6.00;1.00;;;;;;5043651;28;20916;-74
2022/02/05 11:08:06;;;;;;;1.53;0.90;;;6.00;1.00;;;;;;5048095;28;20831;-74
2022/02/05 11:21:15;;;;;;;0.87;0.87;;;6.10;1.00;;;;;;5041989;28;20406;-74
2022/02/05 11:23:49;;;;;;;2.73;1.13;;;6.10;1.00;;;;;;5049179;28;20427;-75
2022/02/05 11:26:20;;;;;;;5.23;1.40;;;6.10;1.00;;;;;;5043653;28;20493;-74
2022/02/05 11:29:27;;;;;;;2.40;1.03;;;6.00;1.00;;;;;;5038508;28;20966;-75
2022/02/05 11:32:13;;;;;;;10.03;1.30;;;6.00;1.00;;;;;;5046327;28;20939;-74
2022/02/05 11:34:48;;;;;;;1.17;1.07;;;6.10;1.00;;;;;;5053013;28;20847;-74
2022/02/05 11:37:14;;;;;;;4.03;1.67;;;6.10;1.00;;;;;;5040513;28;20579;-74
2022/02/05 11:39:53;;;;;;;2.80;1.40;;;6.20;1.00;;;;;;5053963;28;20489;-74
2022/02/05 11:42:27;;;;;;;1.63;1.10;;;6.50;1.00;;;;;;5046885;28;20180;-75
2022/02/05 11:44:54;;;;;;;3.03;1.30;;;6.70;1.00;;;;;;5049531;28;20885;-77
2022/02/05 11:47:19;;;;;;;3.90;1.37;;;6.80;1.00;;;;;;5045420;28;20419;-77
2022/02/05 11:49:55;;;;;;;5.80;1.30;;;7.00;1.00;;;;;;5038724;28;20545;-77
2022/02/05 11:52:45;;;;;;;4.30;1.17;;;7.30;1.00;;;;;;5053621;28;20703;-77
2022/02/05 11:55:32;;;;;;;5.33;1.90;;;7.30;1.00;;;;;;5049502;28;20427;-77
2022/02/05 11:58:12;;;;;;;1.33;1.23;;;7.70;1.00;;;;;;5043787;28;20737;-77
2022/02/05 12:00:49;;;;;;;1.73;1.20;;;7.80;1.00;;;;;;5041643;28;20473;-77
2022/02/05 12:03:34;;;;;;;2.00;1.40;;;7.80;1.00;;;;;;5043997;28;20414;-75
2022/02/05 12:06:06;;;;;;;6.60;1.40;;;8.10;1.00;;;;;;5037519;28;20502;-75
2022/02/05 12:08:37;;;;;;;2.13;1.20;;;8.20;1.00;;;;;;5042596;28;20425;-75
2022/02/05 12:11:31;;;;;;;5.60;1.67;;;8.20;1.00;;;;;;5040535;28;20418;-74
2022/02/05 12:14:11;;;;;;;2.63;1.37;;;8.10;1.00;;;;;;5039027;28;20418;-75
2022/02/05 12:17:03;;;;;;;2.93;1.33;;;8.00;1.00;;;;;;5053529;28;20406;-74
2022/02/05 12:19:29;;;;;;;3.23;1.97;;;8.00;1.00;;;;;;5033269;28;20893;-75
2022/02/05 12:22:12;;;;;;;6.57;1.10;;;8.10;1.00;;;;;;5040678;28;20422;-75
2022/02/05 12:25:21;;;;;;;2.70;1.40;;;8.10;1.00;;;;;;5043991;28;20410;-74
2022/02/05 12:27:52;;;;;;;1.03;0.93;;;8.20;1.00;;;;;;5033699;28;20405;-75
2022/02/05 12:30:29;;;;;;;2.90;1.90;;;8.10;1.00;;;;;;5046603;28;20925;-74
2022/02/05 12:32:55;;;;;;;1.10;1.00;;;8.10;1.00;;;;;;5044326;28;20394;-74
2022/02/05 12:35:22;;;;;;;2.57;1.20;;;8.10;1.00;;;;;;5035866;28;20995;-74
2022/02/05 12:37:47;;;;;;;1.70;1.00;;;8.10;1.00;;;;;;5043911;28;20472;-74
2022/02/05 12:40:15;;;;;;;1.83;1.00;;;8.20;1.00;;;;;;5040717;28;20526;-75
2022/02/05 12:42:54;;;;;;;3.33;1.10;;;8.30;1.00;;;;;;5048991;28;20180;-75
2022/02/05 12:45:34;;;;;;;5.90;1.40;;;8.20;1.00;;;;;;5042544;28;20426;-75
2022/02/05 12:48:05;;;;;;;1.13;1.10;;;8.30;1.00;;;;;;5052460;28;20441;-74
2022/02/05 12:50:32;;;;;;;1.77;0.93;;;8.40;1.00;;;;;;5048352;28;20553;-74
2022/02/05 12:53:00;;;;;;;1.20;0.97;;;8.60;1.00;;;;;;5047389;28;20414;-75
2022/02/05 12:55:27;;;;;;;3.50;1.20;;;8.30;1.00;;;;;;5046347;28;20633;-75
2022/02/05 12:58:03;;;;;;;2.10;0.90;;;8.40;1.00;;;;;;5054277;28;20434;-75
2022/02/05 13:00:29;;;;;;;2.40;1.00;;;8.30;1.00;;;;;;5035869;28;20480;-75
2022/02/05 13:02:55;;;;;;;3.80;1.10;;;8.30;1.00;;;;;;5051637;28;20864;-75
2022/02/05 13:05:36;;;;;;;0.93;0.83;;;8.20;1.00;;;;;;5047465;28;20436;-75
2022/02/05 13:08:02;;;;;;;1.80;1.30;;;8.30;1.00;;;;;;5037282;28;20422;-74
2022/02/05 13:10:44;;;;;;;4.27;1.40;;;8.20;1.00;;;;;;5049745;28;20612;-75
2022/02/05 13:13:10;;;;;;;1.47;0.90;;;8.20;1.00;;;;;;5046171;28;20225;-75
2022/02/05 13:15:36;;;;;;;1.23;1.07;;;8.40;1.00;;;;;;5041565;28;20407;-74
2022/02/05 13:26:10;;;;;;;6.13;1.27;;;8.10;1.00;;;;;;5054335;28;20405;-74
2022/02/05 13:29:17;;;;;;;11.60;1.20;;;8.10;1.00;;;;;;5036915;28;20415;-75
2022/02/05 13:34:26;;;;;;;3.30;1.07;;;8.00;1.00;;;;;;5056794;28;20448;-75
2022/02/05 13:42:15;;;;;;;1.10;0.60;;;7.90;1.00;;;;;;5056260;28;20426;-74
2022/02/05 13:44:44;;;;;;;1.80;0.83;;;7.80;1.00;;;;;;5053250;28;20418;-74
2022/02/05 13:47:17;;;;;;;0.90;0.90;;;7.80;1.00;;;;;;5044248;28;20497;-74
2022/02/05 13:50:03;;;;;;;3.00;1.10;;;9.20;1.00;;;;;;5042327;28;20442;-75
2022/02/05 13:52:36;;;;;;;2.40;1.10;;;7.60;1.00;;;;;;5050299;28;20445;-75
2022/02/05 13:55:30;;;;;;;5.83;1.00;;;7.60;1.00;;;;;;5056010;28;20890;-74
2022/02/05 13:58:12;;;;;;;9.40;1.73;;;7.90;1.00;;;;;;4991609;28;20434;-74
2022/02/05 14:00:52;;;;;;;1.60;1.17;;;7.70;1.00;;;;;;4982615;28;20436;-75
2022/02/05 14:03:28;;;;;;;2.73;0.93;;;7.70;1.00;;;;;;4982235;28;20974;-74
2022/02/05 14:06:08;;;;;;;7.40;1.00;;;7.80;1.00;;;;;;4981100;28;20931;-75
2022/02/05 14:08:44;;;;;;;0.50;0.50;;;7.80;1.00;;;;;;4987635;28;20889;-74
2022/02/05 14:11:13;;;;;;;1.37;0.70;;;7.80;1.00;;;;;;4977309;28;20445;-74
2022/02/05 14:13:40;;;;;;;3.53;0.80;;;7.70;1.00;;;;;;4987385;28;20417;-74
2022/02/05 14:16:07;;;;;;;1.33;1.00;;;7.70;1.00;;;;;;4976407;28;20430;-74
2022/02/05 14:18:53;;;;;;;1.90;1.00;;;7.70;1.00;;;;;;4986265;28;20884;-74
2022/02/05 14:21:38;;;;;;;1.10;1.10;;;7.80;1.00;;;;;;4993953;28;20429;-74
2022/02/05 14:24:06;;;;;;;1.00;0.90;;;7.80;1.00;;;;;;4978818;28;20904;-74
2022/02/05 14:26:51;;;;;;;1.60;1.00;;;7.60;1.00;;;;;;4986903;28;20463;-74
2022/02/05 14:29:17;;;;;;;2.20;1.37;;;7.50;1.00;;;;;;4981509;28;20571;-74
2022/02/05 14:31:45;;;;;;;1.17;1.07;;;7.40;1.00;;;;;;4993643;28;20514;-74
2022/02/05 14:34:17;;;;;;;0.70;0.70;;;7.40;1.00;;;;;;4993744;28;20279;-74
2022/02/05 14:42:22;;;;;;;0.80;0.80;;;7.20;1.00;;;;;;5012964;28;20420;-74
2022/02/05 14:44:49;;;;;;;1.63;1.20;;;7.20;1.00;;;;;;5013335;28;20781;-74
2022/02/05 14:47:16;;;;;;;4.03;0.87;;;7.10;1.00;;;;;;5013031;28;20428;-74
2022/02/05 14:49:42;;;;;;;3.33;1.00;;;7.20;1.00;;;;;;5011606;28;20455;-74
2022/02/05 14:52:16;;;;;;;1.63;0.90;;;7.10;1.00;;;;;;5001008;28;20424;-74
2022/02/05 14:54:42;;;;;;;4.20;1.50;;;7.00;1.00;;;;;;5013058;28;20424;-74
2022/02/05 14:57:10;;;;;;;2.30;0.60;;;7.10;1.00;;;;;;5012841;28;20474;-74
2022/02/05 14:59:35;;;;;;;2.83;0.87;;;7.00;1.00;;;;;;5013212;28;20474;-74
2022/02/05 15:02:01;;;;;;;5.10;1.33;;;7.00;1.00;;;;;;5012318;28;21075;-74
2022/02/05 15:04:27;;;;;;;5.23;0.87;;;7.00;1.00;;;;;;5012542;28;20189;-74
2022/02/05 15:06:53;;;;;;;1.57;0.90;;;7.60;1.00;;;;;;5012517;28;20717;-74
2022/02/05 15:09:22;;;;;;;12.33;1.20;;;7.10;1.00;;;;;;5012428;28;20216;-74
2022/02/05 15:11:47;;;;;;;1.40;0.90;;;7.20;1.00;;;;;;5012813;28;20204;-74
2022/02/05 15:14:17;;;;;;;2.50;1.60;;;7.20;1.00;;;;;;5013193;28;20428;-75
2022/02/05 15:16:43;;;;;;;2.23;1.23;;;7.30;1.00;;;;;;5012660;28;20271;-75
2022/02/05 15:19:09;;;;;;;1.37;1.00;;;7.30;1.00;;;;;;5028840;28;20877;-74
2022/02/05 15:21:37;;;;;;;1.80;1.07;;;7.40;1.00;;;;;;5043800;28;20418;-74
2022/02/05 15:24:05;;;;;;;1.87;1.33;;;7.30;1.00;;;;;;5038241;28;20461;-75
2022/02/05 15:26:40;;;;;;;0.90;0.90;;;7.30;1.00;;;;;;5043631;28;20418;-74
2022/02/05 15:29:11;;;;;;;3.17;0.80;;;7.20;1.00;;;;;;5041131;28;20496;-74
2022/02/05 15:31:42;;;;;;;2.03;0.90;;;7.20;1.00;;;;;;5040971;28;20411;-75
2022/02/05 15:34:08;;;;;;;3.73;1.27;;;7.20;1.00;;;;;;5041365;28;20426;-75
2022/02/05 15:36:52;;;;;;;5.77;1.47;;;7.30;1.00;;;;;;5039624;28;21017;-74
2022/02/05 15:39:47;;;;;;;2.40;0.90;;;7.30;1.00;;;;;;5044682;28;20422;-75
2022/02/05 15:45:21;;;;;;;2.37;1.00;;;7.20;1.00;;;;;;5004716;28;20436;-74
2022/02/05 15:47:46;;;;;;;2.70;1.13;;;7.10;1.00;;;;;;5004525;28;20459;-74
2022/02/05 15:50:13;;;;;;;3.33;1.10;;;7.00;1.00;;;;;;5006531;28;20249;-74
2022/02/05 15:52:39;;;;;;;3.17;1.10;;;6.90;1.00;;;;;;4997729;28;20213;-74
2022/02/05 15:55:17;;;;;;;1.03;0.80;;;6.80;1.00;;;;;;5006790;28;20466;-74
2022/02/05 15:58:03;;;;;;;1.07;0.90;;;6.70;1.00;;;;;;5004760;28;20792;-75
2022/02/05 16:00:32;;;;;;;1.33;0.90;;;6.70;1.00;;;;;;5009373;28;20991;-74
2022/02/05 16:03:01;;;;;;;3.00;1.60;;;6.60;1.00;;;;;;5009335;28;20938;-74
2022/02/05 16:05:28;;;;;;;1.63;1.10;;;6.60;1.00;;;;;;5011987;28;20519;-74
2022/02/05 16:07:54;;;;;;;1.20;1.00;;;6.60;1.00;;;;;;5011754;28;20838;-74
2022/02/05 16:10:20;;;;;;;1.30;1.20;;;6.50;1.00;;;;;;5011790;28;20483;-74
2022/02/05 16:12:47;;;;;;;2.30;1.20;;;6.50;1.00;;;;;;5011745;28;20927;-74
2022/02/05 16:15:13;;;;;;;1.63;0.97;;;6.50;1.00;;;;;;5014210;28;20427;-74
2022/02/05 16:17:48;;;;;;;2.13;1.40;;;6.40;1.00;;;;;;5033736;28;20498;-75
2022/02/05 16:20:16;;;;;;;3.60;0.93;;;6.40;1.00;;;;;;5047502;28;20422;-75
2022/02/05 16:22:46;;;;;;;2.83;1.30;;;6.40;1.00;;;;;;5038645;28;20539;-75
2022/02/05 16:25:21;;;;;;;1.53;1.10;;;6.30;1.00;;;;;;5048558;28;20434;-74
2022/02/05 16:27:50;;;;;;;0.77;0.77;;;;;;;;;;5037277;28;20520;-73
2022/02/05 16:30:22;;;;;;;0.70;0.70;;;6.20;1.00;;;;;;5047924;28;20507;-74
2022/02/05 16:32:51;;;;;;;0.87;0.87;;;6.10;1.00;;;;;;5042821;28;20429;-74
2022/02/05 16:35:17;;;;;;;1.43;1.00;;;6.10;1.00;;;;;;5046202;28;20441;-74
2022/02/05 16:37:42;;;;;;;2.03;1.47;;;6.00;1.00;;;;;;5043221;28;20438;-74
2022/02/05 16:40:12;;;;;;;1.30;1.20;;;6.00;1.00;;;;;;5039980;28;20786;-74